Time;durP1;ratioP1;P1;durP2;ratioP2;P2;SDS_P1;SDS_P2;PMS_P1;PMS_P2;Temp;Humidity;BMP_temperature;BMP_pressure;BME280_temperature;BME280_humidity;BME280_pressure;Samples;Min_cycle;Max_cycle;Signal;HPM_P1;HPM_P2
2024/01/19 00:00:08;;;;;;;5.85;2.55;;;;;;;-2.21;80.17;97877.69;4900999;29;20146;-76
2024/01/19 00:02:36;;;;;;;4.40;2.15;;;;;;;-2.02;79.96;97885.53;4918003;29;20518;-73
2024/01/19 00:05:03;;;;;;;8.88;4.03;;;;;;;-2.02;80.57;97860.03;4910884;29;20047;-74
2024/01/19 00:07:33;;;;;;;4.15;2.65;;;;;;;-2.14;80.31;97848.88;4903705;29;20471;-70
2024/01/19 00:10:02;;;;;;;8.30;3.70;;;;;;;-1.91;80.23;97881.41;4887523;29;20475;-71
2024/01/19 00:12:35;;;;;;;9.40;4.75;;;;;;;-2.30;80.42;97807.09;4900527;29;20059;-73
2024/01/19 00:15:06;;;;;;;;;;;;;;;-1.86;80.79;97874.66;4902582;29;20051;-71
2024/01/19 00:17:34;;;;;;;5.60;2.50;;;;;;;-1.90;80.22;97872.06;4902502;29;19923;-72
2024/01/19 00:20:00;;;;;;;5.28;2.85;;;;;;;-2.19;80.53;97819.06;4896952;29;20059;-71
2024/01/19 00:22:29;;;;;;;3.17;2.10;;;;;;;-2.12;80.15;97831.06;4900131;29;20226;-71
2024/01/19 00:24:55;;;;;;;5.28;2.92;;;;;;;-1.82;80.08;97880.66;4884935;29;20061;-70
2024/01/19 00:27:24;;;;;;;9.07;4.03;;;;;;;-1.86;80.32;97872.09;4901972;29;20040;-72
2024/01/19 00:29:50;;;;;;;3.60;1.98;;;;;;;-1.68;80.39;97891.84;4901080;29;20048;-71
2024/01/19 00:32:19;;;;;;;6.72;3.30;;;;;;;-1.80;80.60;97852.59;4884343;29;20052;-72
2024/01/19 00:34:51;;;;;;;6.47;3.75;;;;;;;-1.69;80.22;97869.72;4903268;29;20044;-71
2024/01/19 00:37:20;;;;;;;;;;;;;;;-1.52;80.56;97881.75;4919521;29;20479;-71
2024/01/19 00:39:46;;;;;;;8.82;4.43;;;;;;;-1.55;80.63;97882.59;4915478;29;19943;-72
2024/01/19 00:42:12;;;;;;;5.18;2.97;;;;;;;-1.88;80.77;97804.09;4888308;29;20051;-72
2024/01/19 00:44:38;;;;;;;11.45;5.88;;;;;;;-1.67;80.80;97837.44;4918617;29;20036;-71
2024/01/19 00:47:16;;;;;;;4.55;2.78;;;;;;;-1.53;80.10;97860.50;4902686;29;20040;-72
2024/01/19 00:49:48;;;;;;;5.57;3.75;;;;;;;-1.46;80.33;97873.31;4871989;29;20052;-72
2024/01/19 00:52:14;;;;;;;7.78;4.65;;;;;;;-1.95;80.38;97792.13;4893925;29;20455;-72
2024/01/19 00:54:41;;;;;;;6.53;3.65;;;;;;;-1.64;80.23;97830.66;4889820;29;20187;-71
2024/01/19 00:57:07;;;;;;;6.93;3.88;;;;;;;-1.42;80.85;97891.22;4901601;29;20507;-72
2024/01/19 00:59:39;;;;;;;4.57;2.50;;;;;;;-1.90;80.79;97814.28;4896335;29;20040;-72
2024/01/19 01:02:12;;;;;;;5.97;3.53;;;;;;;-2.10;80.60;97782.66;4872559;29;20411;-73
2024/01/19 01:04:38;;;;;;;5.32;2.50;;;;;;;-1.61;80.24;97872.34;4898430;29;20040;-71
2024/01/19 01:07:04;;;;;;;5.28;3.40;;;;;;;-2.09;79.98;97802.19;4870467;29;20055;-73
2024/01/19 01:09:30;;;;;;;4.88;2.80;;;;;;;-1.69;80.27;97887.56;4883370;29;20052;-71
2024/01/19 01:11:57;;;;;;;5.72;3.08;;;;;;;-2.11;80.53;97822.56;4899927;29;20043;-71
2024/01/19 01:14:25;;;;;;;4.85;2.78;;;;;;;-1.58;80.60;97918.28;4909890;29;20044;-72
2024/01/19 01:16:51;;;;;;;5.05;2.78;;;;;;;-1.83;80.42;97867.03;4918855;29;20068;-70
2024/01/19 01:19:17;;;;;;;5.70;2.67;;;;;;;-1.67;80.39;97879.94;4903391;29;20032;-70
2024/01/19 01:21:43;;;;;;;6.32;3.17;;;;;;;-1.65;80.50;97874.84;4898961;29;20043;-70
2024/01/19 01:24:12;;;;;;;5.68;3.42;;;;;;;-1.53;80.93;97883.47;4885761;29;20051;-71
2024/01/19 01:26:39;;;;;;;9.90;4.85;;;;;;;-1.53;80.17;97878.38;4900129;29;20131;-71
2024/01/19 01:29:04;;;;;;;8.40;4.30;;;;;;;-1.65;80.81;97847.63;4890678;29;20087;-71
2024/01/19 01:31:31;;;;;;;4.57;2.35;;;;;;;-1.30;80.02;97907.47;4914891;29;20048;-70
2024/01/19 01:34:04;;;;;;;6.13;2.83;;;;;;;-1.37;80.43;97899.78;4901768;29;20044;-72
2024/01/19 01:36:31;;;;;;;3.92;2.38;;;;;;;-1.63;80.15;97865.53;4897598;29;20496;-73
2024/01/19 01:39:00;;;;;;;5.78;2.65;;;;;;;-1.43;80.77;97925.22;4901398;29;20131;-71
2024/01/19 01:41:37;;;;;;;5.25;2.78;;;;;;;-1.77;80.74;97868.81;4900551;29;20163;-71
2024/01/19 01:44:04;;;;;;;3.78;2.00;;;;;;;-1.76;80.18;97890.06;4900975;29;20153;-72
2024/01/19 01:46:32;;;;;;;4.68;2.00;;;;;;;-1.71;80.52;97888.41;4902043;29;20040;-70
2024/01/19 01:49:00;;;;;;;4.07;2.38;;;;;;;-1.56;80.72;97905.56;4872536;29;20526;-71
2024/01/19 01:51:26;;;;;;;5.65;3.28;;;;;;;-1.62;80.62;97888.47;4890867;29;20051;-71
2024/01/19 01:53:55;;;;;;;4.85;2.50;;;;;;;-1.49;80.62;97919.22;4901167;29;20498;-71
2024/01/19 01:56:22;;;;;;;8.05;3.80;;;;;;;-1.44;80.50;97923.53;4880753;29;20052;-70
2024/01/19 01:58:51;;;;;;;5.40;2.95;;;;;;;-1.75;79.91;97881.56;4916291;29;20051;-72
2024/01/19 02:01:17;;;;;;;5.18;2.80;;;;;;;-1.61;80.23;97908.03;4884046;29;20059;-71
2024/01/19 02:03:44;;;;;;;3.75;2.00;;;;;;;-2.28;79.91;97807.97;4887164;29;20048;-70
2024/01/19 02:06:13;;;;;;;4.03;2.42;;;;;;;-1.56;80.24;97924.25;4886498;29;20269;-70
2024/01/19 02:08:40;;;;;;;3.88;2.38;;;;;;;-1.52;80.59;97914.94;4881582;29;20506;-70
2024/01/19 02:11:06;;;;;;;6.80;2.85;;;;;;;-1.62;80.14;97896.13;4899858;29;20601;-72
2024/01/19 02:13:32;;;;;;;3.30;2.10;;;;;;;-1.54;79.87;97914.06;4868977;29;20051;-72
2024/01/19 02:16:02;;;;;;;4.50;2.55;;;;;;;-1.57;80.71;97907.25;4900465;29;20474;-71
2024/01/19 02:18:35;;;;;;;;;;;;;;;-1.42;80.51;97921.84;4890960;29;20044;-70
2024/01/19 02:21:05;;;;;;;7.35;2.95;;;;;;;-1.39;80.71;97918.44;4903739;29;19930;-70
2024/01/19 02:23:40;;;;;;;5.13;2.28;;;;;;;-1.66;80.12;97889.31;4889856;29;20043;-70
2024/01/19 02:26:11;;;;;;;4.28;2.58;;;;;;;-1.62;80.41;97906.34;4921094;29;20462;-70
2024/01/19 02:28:43;;;;;;;5.72;3.03;;;;;;;-1.55;80.40;97923.41;4900471;29;20044;-71
2024/01/19 02:31:08;;;;;;;2.90;1.83;;;;;;;-1.82;79.89;97875.56;4911736;29;20036;-70
2024/01/19 02:33:34;;;;;;;8.73;4.28;;;;;;;-1.53;80.52;97947.25;4874249;29;20040;-71
2024/01/19 02:36:03;;;;;;;3.85;1.98;;;;;;;-1.56;80.24;97931.91;4898293;29;20057;-71
2024/01/19 02:38:32;;;;;;;4.03;2.60;;;;;;;-1.54;80.34;97958.31;4902051;29;20180;-70
2024/01/19 02:40:58;;;;;;;6.03;3.00;;;;;;;-1.76;80.15;97918.09;4916275;29;20059;-69
2024/01/19 02:43:24;;;;;;;5.10;2.53;;;;;;;-1.61;79.82;97951.41;4902184;29;20048;-69
2024/01/19 02:45:50;;;;;;;3.83;2.35;;;;;;;-1.87;80.12;97921.38;4871903;29;20049;-72
2024/01/19 02:48:16;;;;;;;8.55;3.95;;;;;;;-1.77;80.18;97954.66;4908642;29;20065;-71
2024/01/19 02:50:45;;;;;;;6.13;2.90;;;;;;;-1.77;80.25;97970.81;4902028;29;20096;-69
2024/01/19 02:53:14;;;;;;;6.40;2.78;;;;;;;-1.74;79.86;97968.28;4903110;29;20511;-71
2024/01/19 02:55:43;;;;;;;17.45;6.00;;;;;;;-1.60;80.39;97968.44;4881947;29;20076;-71
2024/01/19 02:58:12;;;;;;;10.65;4.22;;;;;;;-1.47;80.93;97976.22;4901742;29;20176;-70
2024/01/19 03:00:44;;;;;;;2.72;1.52;;;;;;;-1.58;80.88;97953.16;4899498;29;20528;-72
2024/01/19 03:03:10;;;;;;;17.27;5.97;;;;;;;-1.37;80.47;97978.88;4871551;29;20055;-71
2024/01/19 03:05:36;;;;;;;2.92;1.45;;;;;;;-1.27;81.18;97981.50;4894834;29;20037;-72
2024/01/19 03:08:09;;;;;;;17.80;4.75;;;;;;;-1.18;81.24;97993.50;4893295;29;21893;-72
2024/01/19 03:10:36;;;;;;;11.65;3.60;;;;;;;-1.26;81.01;97984.09;4901979;29;20436;-71
2024/01/19 03:13:05;;;;;;;5.80;2.60;;;;;;;-1.39;80.78;97967.81;4900107;29;20139;-72
2024/01/19 03:15:34;;;;;;;17.77;5.25;;;;;;;-1.82;80.26;97904.44;4885793;29;20048;-71
2024/01/19 03:18:03;;;;;;;4.28;1.98;;;;;;;-1.33;80.33;98005.28;4885220;29;20060;-71
2024/01/19 03:20:44;;;;;;;11.50;4.20;;;;;;;-1.24;81.01;98002.84;4894166;29;20052;-72
2024/01/19 03:23:13;;;;;;;5.20;2.15;;;;;;;-1.66;80.56;97942.88;4937630;29;20067;-72
2024/01/19 03:25:40;;;;;;;42.70;9.13;;;;;;;-1.14;81.15;98015.66;4921433;29;20065;-70
2024/01/19 03:28:12;;;;;;;6.40;2.70;;;;;;;-1.10;80.64;98025.91;4908156;29;20047;-73
2024/01/19 03:30:38;;;;;;;6.65;3.13;;;;;;;-1.28;81.16;97969.59;4920993;29;20044;-72
2024/01/19 03:33:04;;;;;;;5.53;2.50;;;;;;;-1.09;80.84;98003.81;4891416;29;20044;-72
2024/01/19 03:35:34;;;;;;;2.25;1.20;;;;;;;-1.43;80.77;97934.56;4921970;29;20047;-71
2024/01/19 03:38:08;;;;;;;8.15;2.95;;;;;;;-1.46;80.73;97932.84;4937292;29;20067;-72
2024/01/19 03:40:34;;;;;;;4.00;2.40;;;;;;;-1.12;81.27;97997.00;4906325;29;20043;-71
2024/01/19 03:43:04;;;;;;;3.08;2.17;;;;;;;-0.85;81.14;98022.75;4905064;29;20043;-71
2024/01/19 03:45:30;;;;;;;3.58;2.17;;;;;;;-0.81;81.53;98019.38;4906308;29;20055;-71
2024/01/19 03:48:17;;;;;;;4.68;2.28;;;;;;;-0.98;81.25;97979.22;4914691;29;20042;-74
2024/01/19 03:50:43;;;;;;;9.00;2.88;;;;;;;-1.11;80.75;97956.97;4916834;29;20052;-72
2024/01/19 03:53:11;;;;;;;5.32;2.22;;;;;;;-0.71;81.53;98008.38;4885091;29;20047;-73
2024/01/19 03:55:40;;;;;;;2.83;1.70;;;;;;;-1.09;81.63;97948.47;4899250;29;20044;-71
2024/01/19 03:58:07;;;;;;;5.43;2.58;;;;;;;-1.29;81.16;97927.91;4884496;29;20060;-72
2024/01/19 04:00:33;;;;;;;3.92;2.30;;;;;;;-1.13;81.42;97967.19;4901879;29;20068;-73
2024/01/19 04:02:59;;;;;;;4.95;3.05;;;;;;;-0.77;81.33;98028.75;4900337;29;20064;-71
2024/01/19 04:05:26;;;;;;;6.78;2.83;;;;;;;-0.77;81.09;98042.41;4900422;29;20044;-73
2024/01/19 04:07:52;;;;;;;7.10;3.67;;;;;;;-0.64;81.23;98048.47;4882282;29;20534;-72
2024/01/19 04:10:23;;;;;;;8.18;3.03;;;;;;;-0.84;80.98;98032.13;4901030;29;20048;-71
2024/01/19 04:12:51;;;;;;;9.48;5.35;;;;;;;-1.08;81.33;97995.31;4882585;29;20036;-72
2024/01/19 04:15:17;;;;;;;16.20;6.30;;;;;;;-0.66;81.05;98067.19;4893275;29;20503;-74
2024/01/19 04:17:44;;;;;;;12.43;4.90;;;;;;;-0.72;81.31;98062.03;4899288;29;20052;-72
2024/01/19 04:20:13;;;;;;;12.05;4.20;;;;;;;-0.89;80.95;98026.97;4896482;29;20079;-72
2024/01/19 04:22:40;;;;;;;25.50;8.38;;;;;;;-0.67;81.46;98071.44;4898309;29;20073;-73
2024/01/19 04:25:09;;;;;;;29.27;9.88;;;;;;;-1.06;81.74;98004.69;4900562;29;20139;-71
2024/01/19 04:27:44;;;;;;;15.55;6.30;;;;;;;-0.58;81.57;98082.59;4869291;29;20036;-71
2024/01/19 04:30:10;;;;;;;9.05;3.75;;;;;;;-0.94;81.12;98042.25;4914316;29;20058;-73
2024/01/19 04:32:37;;;;;;;13.02;3.80;;;;;;;-0.95;80.96;98058.41;4885173;29;20044;-70
2024/01/19 04:35:11;;;;;;;15.07;5.50;;;;;;;-1.05;80.98;98043.84;4891142;29;20432;-72
2024/01/19 04:37:40;;;;;;;14.40;4.50;;;;;;;-0.60;81.11;98118.34;4920050;29;20255;-73
2024/01/19 04:40:10;;;;;;;14.77;4.28;;;;;;;-0.62;81.69;98120.88;4898099;29;20044;-75
2024/01/19 04:42:42;;;;;;;9.48;2.90;;;;;;;-0.57;81.45;98127.75;4903479;29;20043;-72
2024/01/19 04:45:08;;;;;;;20.55;5.05;;;;;;;-0.58;81.24;98136.25;4879100;29;20127;-73
2024/01/19 04:47:36;;;;;;;17.92;5.43;;;;;;;-0.76;80.79;98119.88;4920013;29;20448;-73
2024/01/19 04:50:03;;;;;;;22.30;5.93;;;;;;;-0.72;81.80;98141.22;4902088;29;20159;-71
2024/01/19 04:52:30;;;;;;;13.00;4.28;;;;;;;-0.73;81.34;98155.69;4900613;29;20040;-71
2024/01/19 04:54:56;;;;;;;7.00;2.67;;;;;;;-0.75;81.31;98157.34;4918082;29;20051;-71
2024/01/19 04:57:25;;;;;;;12.63;3.47;;;;;;;-0.91;81.31;98134.22;4887817;29;20525;-73
2024/01/19 04:59:53;;;;;;;23.98;6.18;;;;;;;-0.82;81.13;98142.81;4902139;29;20048;-73
2024/01/19 05:02:20;;;;;;;46.72;8.38;;;;;;;-0.83;81.33;98136.00;4889503;29;20063;-72
2024/01/19 05:04:50;;;;;;;21.58;5.00;;;;;;;-0.90;81.22;98132.53;4873764;29;20063;-75
2024/01/19 05:07:16;;;;;;;14.27;3.47;;;;;;;-0.90;81.00;98142.75;4904247;29;20072;-75
2024/01/19 05:09:46;;;;;;;15.63;4.47;;;;;;;-1.01;81.79;98113.69;4871931;29;20039;-74
2024/01/19 05:12:15;;;;;;;99.43;16.48;;;;;;;-1.01;81.37;98127.31;4887790;29;20040;-75
2024/01/19 05:14:49;;;;;;;10.80;3.17;;;;;;;-0.88;81.01;98160.63;4902163;29;20059;-74
2024/01/19 05:17:15;;;;;;;9.52;2.80;;;;;;;-0.81;81.06;98172.63;4887586;29;20534;-74
2024/01/19 05:19:44;;;;;;;19.50;4.95;;;;;;;-1.22;80.72;98113.47;4902866;29;20424;-73
2024/01/19 05:22:13;;;;;;;;;;;;;;;-0.82;80.77;98176.88;4888525;29;20495;-72
2024/01/19 05:24:47;;;;;;;12.30;3.13;;;;;;;-1.42;81.34;98079.19;4903034;29;19918;-73
2024/01/19 05:27:19;;;;;;;9.50;2.55;;;;;;;-0.89;80.94;98158.91;4888663;29;20058;-74
2024/01/19 05:29:45;;;;;;;28.30;5.13;;;;;;;-1.03;81.54;98131.53;4915166;29;20051;-74
2024/01/19 05:32:27;;;;;;;29.83;5.00;;;;;;;-1.17;81.47;98110.97;4901999;29;20058;-69
2024/01/19 05:34:53;;;;;;;13.18;3.10;;;;;;;-0.86;81.77;98154.69;4901888;29;20079;-70
2024/01/19 05:37:20;;;;;;;23.50;5.28;;;;;;;-1.03;81.02;98139.22;4900382;29;20064;-72
2024/01/19 05:39:49;;;;;;;8.85;2.60;;;;;;;-0.76;81.28;98184.63;4887253;29;20456;-72
2024/01/19 05:42:15;;;;;;;12.60;4.25;;;;;;;-0.69;81.90;98205.97;4900277;29;20044;-71
2024/01/19 05:44:44;;;;;;;15.32;3.88;;;;;;;-0.91;81.18;98169.97;4879123;29;20139;-75
2024/01/19 05:47:12;;;;;;;59.25;9.98;;;;;;;-1.31;80.88;98126.13;4902363;29;20055;-76
2024/01/19 05:49:44;;;;;;;12.60;3.45;;;;;;;-1.56;81.61;98084.16;4912585;29;20051;-75
2024/01/19 05:52:30;;;;;;;35.10;6.50;;;;;;;-1.39;81.17;98104.75;4888339;29;20731;-75
2024/01/19 05:55:39;;;;;;;17.05;3.78;;;;;;;-1.89;81.73;98047.16;4906277;29;20055;-78
2024/01/19 05:58:10;;;;;;;49.22;8.32;;;;;;;-1.44;81.62;98125.09;4874550;29;20059;-77
2024/01/19 06:01:03;;;;;;;15.00;3.30;;;;;;;-1.44;81.32;98116.59;4891817;29;20111;-77
2024/01/19 06:03:33;;;;;;;26.20;4.75;;;;;;;-1.54;81.34;98097.75;4889361;29;20055;-74
2024/01/19 06:06:07;;;;;;;39.40;6.85;;;;;;;-0.79;81.88;98212.69;4893576;29;20040;-74
2024/01/19 06:08:36;;;;;;;15.93;4.10;;;;;;;-0.74;81.19;98232.31;4906891;29;20088;-74
2024/01/19 06:11:02;;;;;;;25.33;5.05;;;;;;;-0.88;81.72;98215.13;4921836;29;20047;-75
2024/01/19 06:13:45;;;;;;;37.50;6.28;;;;;;;-0.81;81.93;98233.94;4922369;29;20044;-74
2024/01/19 06:16:14;;;;;;;114.63;16.90;;;;;;;-0.67;81.57;98260.50;4874823;29;20055;-74
2024/01/19 06:18:43;;;;;;;71.78;10.63;;;;;;;-0.75;81.82;98259.53;4920232;29;20040;-73
2024/01/19 06:21:22;;;;;;;16.20;3.75;;;;;;;-0.84;81.26;98244.97;4874461;29;20509;-75
2024/01/19 06:23:51;;;;;;;99.68;17.75;;;;;;;-0.88;81.92;98244.91;4904921;29;20048;-73
2024/01/19 06:26:17;;;;;;;14.02;3.42;;;;;;;-1.49;80.71;98133.56;4905439;29;20071;-73
2024/01/19 06:28:43;;;;;;;53.97;9.48;;;;;;;-1.10;81.65;98214.00;4886909;29;20047;-73
2024/01/19 06:31:10;;;;;;;17.60;3.75;;;;;;;-1.00;81.10;98225.19;4907333;29;20496;-76
2024/01/19 06:33:40;;;;;;;24.45;5.07;;;;;;;-1.13;81.45;98211.41;4898166;29;20115;-74
2024/01/19 06:36:15;;;;;;;66.72;11.30;;;;;;;-0.69;81.37;98287.72;4921889;29;20127;-77
2024/01/19 06:38:46;;;;;;;20.77;4.20;;;;;;;-1.00;81.47;98220.97;4877353;29;20060;-78
2024/01/19 06:41:13;;;;;;;81.40;12.45;;;;;;;-0.54;81.85;98291.28;4906734;29;20048;-78
2024/01/19 06:43:39;;;;;;;53.03;8.80;;;;;;;-0.59;81.25;98287.84;4910478;29;20044;-75
2024/01/19 06:46:06;;;;;;;109.50;16.83;;;;;;;-0.69;81.46;98272.41;4907398;29;20044;-76
2024/01/19 06:48:37;;;;;;;6.20;1.67;;;;;;;-0.57;81.07;98287.00;4921411;29;20040;-73
2024/01/19 06:51:04;;;;;;;41.63;8.20;;;;;;;-0.53;81.34;98305.78;4906814;29;20059;-72
2024/01/19 06:53:32;;;;;;;46.85;8.60;;;;;;;-0.59;81.71;98301.47;4921097;29;21890;-74
2024/01/19 06:56:01;;;;;;;80.22;14.02;;;;;;;-0.53;81.57;98313.47;4920249;29;20082;-74
2024/01/19 06:58:27;;;;;;;95.75;15.90;;;;;;;-0.86;81.58;98250.91;4905130;29;20051;-73
2024/01/19 07:00:56;;;;;;;36.65;6.10;;;;;;;-1.17;81.87;98220.75;4904131;29;20036;-78
2024/01/19 07:03:22;;;;;;;43.28;9.27;;;;;;;-0.57;81.81;98329.63;4915175;29;20032;-78
2024/01/19 07:05:49;;;;;;;111.25;16.83;;;;;;;-1.01;81.29;98266.88;4917097;29;20055;-75
2024/01/19 07:08:21;;;;;;;77.78;12.93;;;;;;;-0.81;81.18;98297.81;4898899;29;20116;-81
2024/01/19 07:10:48;;;;;;;45.55;6.82;;;;;;;-0.71;81.80;98324.31;4917458;29;20047;-76
2024/01/19 07:13:20;;;;;;;78.43;13.32;;;;;;;-1.04;81.52;98275.38;4915835;29;20071;-74
2024/01/19 07:15:50;;;;;;;101.70;16.02;;;;;;;-1.22;80.80;98253.88;4896914;29;20048;-75
2024/01/19 07:18:16;;;;;;;70.63;8.93;;;;;;;-0.92;81.15;98302.78;4904686;29;20048;-75
2024/01/19 07:20:44;;;;;;;30.10;4.18;;;;;;;-0.53;81.13;98364.56;4912593;29;20036;-78
2024/01/19 07:23:38;;;;;;;48.67;7.32;;;;;;;-0.88;81.50;98322.38;4911409;29;20040;-74
2024/01/19 07:26:10;;;;;;;52.03;6.55;;;;;;;-0.86;81.40;98317.31;4899810;29;20055;-76
2024/01/19 07:28:36;;;;;;;37.95;5.43;;;;;;;-0.54;81.85;98357.75;4910622;29;20088;-79
2024/01/19 07:31:06;;;;;;;64.78;7.63;;;;;;;-0.36;81.82;98386.09;4927263;29;20044;-79
2024/01/19 07:33:32;;;;;;;29.75;5.38;;;;;;;-0.33;81.64;98364.81;4935006;29;20052;-77
2024/01/19 07:36:01;;;;;;;122.22;17.13;;;;;;;-0.88;81.82;98266.19;4895891;29;20071;-77
2024/01/19 07:38:30;;;;;;;83.53;11.23;;;;;;;-0.81;82.00;98277.38;4912623;29;20044;-81
2024/01/19 07:41:06;;;;;;;62.17;8.50;;;;;;;-0.61;81.92;98300.59;4893666;29;20040;-73
2024/01/19 07:43:33;;;;;;;72.07;10.95;;;;;;;-0.08;82.00;98388.13;4888656;29;20033;-74
2024/01/19 07:46:05;;;;;;;74.03;9.30;;;;;;;0.01;81.74;98403.56;4908514;29;20040;-74
2024/01/19 07:48:52;;;;;;;73.68;11.82;;;;;;;0.03;82.00;98396.75;4892900;29;20097;-72
2024/01/19 07:51:22;;;;;;;82.63;11.18;;;;;;;-1.16;81.26;98209.69;4906876;29;20044;-73
2024/01/19 07:53:51;;;;;;;51.70;7.75;;;;;;;-0.31;81.36;98328.19;4894482;29;20044;-73
2024/01/19 07:56:25;;;;;;;;;;;;;;;0.23;82.12;98414.03;4911236;29;20107;-79
2024/01/19 07:58:52;;;;;;;106.85;14.43;;;;;;;-0.60;81.96;98269.09;4895898;29;19934;-78
2024/01/19 08:01:18;;;;;;;88.63;13.82;;;;;;;0.18;81.40;98396.06;4888022;29;20055;-76
2024/01/19 08:04:18;;;;;;;85.43;13.68;;;;;;;-0.52;81.38;98270.03;4896318;29;20073;-78
2024/01/19 08:07:32;;;;;;;86.60;12.85;;;;;;;0.45;81.53;98431.31;4896469;29;20044;-79
2024/01/19 08:10:02;;;;;;;97.93;15.60;;;;;;;-0.39;81.06;98272.72;4906019;29;20052;-79
2024/01/19 08:12:40;;;;;;;100.57;16.98;;;;;;;0.55;81.68;98422.03;4909268;29;20048;-77
2024/01/19 08:15:28;;;;;;;98.65;18.13;;;;;;;0.16;80.80;98341.47;4888314;29;20107;-75
2024/01/19 08:18:20;;;;;;;52.72;10.10;;;;;;;-0.13;81.50;98288.34;4910774;29;20518;-79
2024/01/19 08:20:48;;;;;;;76.22;15.48;;;;;;;0.29;80.99;98355.25;4906530;29;20112;-75
2024/01/19 08:23:24;;;;;;;97.57;18.02;;;;;;;0.22;81.04;98333.88;4892287;29;20051;-73
2024/01/19 08:26:00;;;;;;;82.55;18.27;;;;;;;0.18;80.44;98321.03;4914831;29;20056;-74
2024/01/19 08:28:29;;;;;;;69.22;13.95;;;;;;;1.07;81.11;98471.16;4898858;29;20021;-79
2024/01/19 08:31:18;;;;;;;99.63;18.45;;;;;;;0.75;81.48;98414.53;4895071;29;20068;-80
2024/01/19 08:34:42;;;;;;;48.13;10.30;;;;;;;0.42;80.76;98379.25;4899605;29;20048;-80
2024/01/19 08:37:20;;;;;;;68.75;14.88;;;;;;;0.34;81.01;98380.88;4878206;29;20120;-77
2024/01/19 08:39:46;;;;;;;96.90;18.00;;;;;;;0.28;80.72;98349.28;4908434;29;20216;-73
2024/01/19 08:42:38;;;;;;;83.43;18.23;;;;;;;0.98;80.80;98467.66;4903475;29;20107;-79
2024/01/19 08:45:20;;;;;;;76.35;13.38;;;;;;;0.39;81.36;98387.78;4882206;29;20048;-76
2024/01/19 08:48:18;;;;;;;60.83;13.23;;;;;;;0.52;81.02;98416.03;4898724;29;20037;-77
2024/01/19 08:51:20;;;;;;;77.10;16.65;;;;;;;0.97;81.51;98481.31;4889111;29;20040;-74
2024/01/19 08:53:55;;;;;;;59.17;13.27;;;;;;;0.39;80.82;98399.69;4903210;29;20044;-71
2024/01/19 08:56:24;;;;;;;80.82;18.90;;;;;;;0.87;81.02;98465.00;4921443;29;20096;-73
2024/01/19 08:58:51;;;;;;;72.28;16.85;;;;;;;0.18;81.66;98337.22;4904711;29;20139;-78
2024/01/19 09:01:20;;;;;;;66.85;16.58;;;;;;;0.42;81.11;98374.13;4903992;29;20044;-79
2024/01/19 09:04:01;;;;;;;71.28;17.40;;;;;;;0.68;81.27;98414.47;4902778;29;20044;-73
2024/01/19 09:06:28;;;;;;;72.68;18.95;;;;;;;1.08;81.77;98453.22;4873570;29;20108;-73
2024/01/19 09:09:07;;;;;;;68.38;18.17;;;;;;;1.40;81.89;98488.50;4906474;29;20039;-75
2024/01/19 09:11:35;;;;;;;68.22;17.52;;;;;;;1.24;81.44;98455.88;4891553;29;20085;-77
2024/01/19 09:14:02;;;;;;;63.08;16.95;;;;;;;1.32;81.65;98459.38;4873461;29;20052;-72
2024/01/19 09:16:35;;;;;;;56.05;16.23;;;;;;;1.57;81.81;98510.81;4900786;29;20052;-73
2024/01/19 09:19:04;;;;;;;53.20;15.55;;;;;;;1.39;81.56;98481.66;4903877;29;20053;-73
2024/01/19 09:21:30;;;;;;;48.72;13.40;;;;;;;1.22;81.58;98448.19;4898624;29;20051;-71
2024/01/19 09:23:56;;;;;;;56.42;14.98;;;;;;;1.59;81.83;98509.13;4885965;29;20356;-72
2024/01/19 09:26:23;;;;;;;54.22;15.68;;;;;;;1.34;81.38;98465.38;4883570;29;20065;-72
2024/01/19 09:28:53;;;;;;;49.28;14.45;;;;;;;1.12;82.17;98438.72;4900305;29;20084;-73
2024/01/19 09:31:21;;;;;;;44.67;14.75;;;;;;;1.34;81.30;98501.25;4886231;29;20041;-71
2024/01/19 09:33:56;;;;;;;50.53;15.13;;;;;;;1.43;81.31;98534.66;4905685;29;20049;-71
2024/01/19 09:36:47;;;;;;;50.65;16.83;;;;;;;1.48;81.95;98527.84;4898341;29;20059;-71
2024/01/19 09:39:15;;;;;;;44.30;14.70;;;;;;;1.26;81.50;98519.16;4902577;29;20064;-73
2024/01/19 09:42:11;;;;;;;46.28;15.68;;;;;;;0.47;81.31;98407.44;4903444;29;20055;-73
2024/01/19 09:45:04;;;;;;;46.08;15.27;;;;;;;0.84;82.42;98459.84;4886786;29;20040;-72
2024/01/19 09:48:01;;;;;;;49.87;15.60;;;;;;;1.39;82.24;98545.75;4900373;29;20056;-73
2024/01/19 09:50:35;;;;;;;46.28;15.25;;;;;;;1.37;81.71;98550.00;4898858;29;20037;-69
2024/01/19 09:53:32;;;;;;;44.90;14.73;;;;;;;1.18;82.39;98520.78;4899525;29;20179;-69
2024/01/19 09:55:59;;;;;;;45.58;14.13;;;;;;;1.32;81.83;98551.66;4888948;29;20041;-68
2024/01/19 09:58:30;;;;;;;41.92;15.20;;;;;;;1.14;82.12;98535.28;4902113;29;20033;-69
2024/01/19 10:01:00;;;;;;;36.55;14.68;;;;;;;1.31;81.88;98583.25;4883909;29;20072;-69
2024/01/19 10:03:28;;;;;;;43.85;14.40;;;;;;;1.20;82.17;98576.34;4897975;29;20428;-69
2024/01/19 10:06:11;;;;;;;42.97;13.52;;;;;;;1.10;82.46;98564.28;4884685;29;20052;-71
2024/01/19 10:08:43;;;;;;;42.70;14.68;;;;;;;0.72;82.93;98493.88;4871590;29;20040;-67
2024/01/19 10:11:09;;;;;;;50.38;14.73;;;;;;;0.83;81.98;98524.72;4897415;29;20040;-69
2024/01/19 10:14:01;;;;;;;49.00;15.13;;;;;;;0.94;81.58;98570.94;4897889;29;20066;-72
2024/01/19 10:16:27;;;;;;;46.35;14.13;;;;;;;0.55;82.14;98526.16;4897267;29;20051;-69
2024/01/19 10:18:59;;;;;;;60.88;16.73;;;;;;;0.70;81.85;98574.97;4894564;29;20045;-68
2024/01/19 10:21:35;;;;;;;53.35;15.70;;;;;;;0.54;82.60;98543.22;4897251;29;20052;-69
2024/01/19 10:24:19;;;;;;;54.92;15.45;;;;;;;0.89;82.90;98598.22;4880725;29;20055;-71
2024/01/19 10:27:05;;;;;;;53.70;14.98;;;;;;;0.51;82.53;98539.75;4874775;29;20072;-71
2024/01/19 10:29:32;;;;;;;54.25;15.20;;;;;;;0.82;82.62;98594.72;4910882;29;20104;-70
2024/01/19 10:32:21;;;;;;;47.50;13.80;;;;;;;0.54;82.98;98566.25;4896596;29;20112;-69
2024/01/19 10:35:10;;;;;;;58.42;15.00;;;;;;;0.86;82.76;98605.88;4866836;29;21355;-69
2024/01/19 10:37:36;;;;;;;41.45;12.52;;;;;;;0.97;82.70;98644.44;4880911;29;20085;-68
2024/01/19 10:40:39;;;;;;;36.97;12.43;;;;;;;0.97;82.93;98635.03;4898943;29;20044;-70
2024/01/19 10:43:48;;;;;;;39.20;12.70;;;;;;;0.35;82.08;98551.50;4902940;29;20044;-70
2024/01/19 10:46:24;;;;;;;42.55;13.45;;;;;;;0.54;82.79;98563.72;4871883;29;20280;-71
2024/01/19 10:49:16;;;;;;;28.80;10.38;;;;;;;0.88;82.48;98630.66;4896036;29;20060;-71
2024/01/19 10:54:38;;;;;;;30.38;11.23;;;;;;;0.57;83.08;98607.25;4898432;29;20105;-71
2024/01/19 10:57:14;;;;;;;31.90;10.02;;;;;;;0.67;82.31;98636.38;4884841;29;20044;-70
2024/01/19 10:59:40;;;;;;;33.45;11.88;;;;;;;0.60;83.12;98626.91;4887280;29;20043;-69
2024/01/19 11:02:08;;;;;;;26.63;10.82;;;;;;;0.79;82.59;98651.03;4891395;29;20452;-71
2024/01/19 11:04:37;;;;;;;32.20;11.18;;;;;;;0.69;83.27;98646.66;4883827;29;20503;-71
2024/01/19 11:07:07;;;;;;;33.05;11.45;;;;;;;0.57;83.39;98629.44;4882206;29;20051;-71
2024/01/19 11:10:00;;;;;;;33.35;11.50;;;;;;;0.58;83.42;98626.88;4886653;29;20044;-68
2024/01/19 11:12:35;;;;;;;29.77;11.57;;;;;;;0.78;82.94;98677.47;4871947;29;20045;-69
2024/01/19 11:15:09;;;;;;;27.63;10.77;;;;;;;0.61;83.27;98659.38;4897031;29;20048;-70
2024/01/19 11:17:38;;;;;;;33.65;11.77;;;;;;;0.14;82.86;98609.22;4902598;29;20045;-70
2024/01/19 11:20:15;;;;;;;27.05;10.77;;;;;;;0.62;83.00;98683.25;4887112;29;20059;-72
2024/01/19 11:22:46;;;;;;;33.70;11.02;;;;;;;0.32;82.95;98651.31;4901846;29;20095;-70
2024/01/19 11:25:59;;;;;;;25.35;10.18;;;;;;;0.65;82.80;98699.53;4899434;29;20048;-70
2024/01/19 11:28:37;;;;;;;25.98;10.40;;;;;;;0.60;82.82;98703.72;4896902;29;20045;-69
2024/01/19 11:31:11;;;;;;;25.08;11.32;;;;;;;0.60;82.68;98704.56;4901071;29;20056;-67
2024/01/19 11:33:44;;;;;;;35.25;12.40;;;;;;;0.69;83.38;98718.34;4882432;29;20056;-72
2024/01/19 11:36:36;;;;;;;27.17;10.27;;;;;;;0.18;83.51;98644.25;4886841;29;20060;-72
2024/01/19 11:39:06;;;;;;;32.75;12.32;;;;;;;0.62;83.36;98713.97;4908355;29;20047;-72
2024/01/19 11:41:48;;;;;;;;;;;;;;;;;;;;;
2024/01/19 11:44:49;;;;;;;32.78;12.43;;;;;;;0.52;82.73;98736.03;4892767;29;20058;-72
2024/01/19 11:47:45;;;;;;;32.45;10.82;;;;;;;-0.15;82.58;98655.72;4901445;29;20044;-70
2024/01/19 11:50:13;;;;;;;26.02;10.98;;;;;;;0.22;82.24;98739.88;4889226;29;20045;-71
2024/01/19 11:53:04;;;;;;;30.27;11.20;;;;;;;0.11;83.14;98747.38;4911728;29;20550;-73
2024/01/19 11:55:33;;;;;;;33.55;11.70;;;;;;;-0.02;82.24;98753.97;4901896;29;20045;-71